This is the latest recevied weather packets stored in our database for station/object OE-11307. If no packets are shown the sender has not sent any weather packets the latest 10 day(s).
| Time | Temp. | Humidity | Pressure | Rain* | Wind** | Luminosity | Snow |
|---|---|---|---|---|---|---|---|
| 1787892086 | 17.78° C | 66% | 851.4 hPa | 0 mm | - | 0 W/m² | - |
| 1787891713 | 17.78° C | 65% | 851.3 hPa | 0 mm | - | 0 W/m² | - |
| 1787891114 | 17.78° C | 65% | 851.3 hPa | 0 mm | - | 0 W/m² | - |
| 1787890286 | 18.33° C | 63% | 851.2 hPa | 0 mm | - | 0 W/m² | - |
| 1787889914 | 18.89° C | 60% | 851.1 hPa | 0 mm | - | 0 W/m² | - |
| 1787889314 | 18.89° C | 61% | 851.4 hPa | 0 mm | - | 0 W/m² | - |
| 1787888713 | 18.89° C | 59% | 851.5 hPa | 0 mm | - | 0 W/m² | - |
| 1787888113 | 18.33° C | 62% | 851.2 hPa | 0 mm | - | 0 W/m² | - |
| 1787887513 | 17.78° C | 65% | 851.4 hPa | 0 mm | - | 0 W/m² | - |
| 1787886685 | 18.89° C | 61% | 851.6 hPa | 0 mm | - | 0 W/m² | - |
| 1787886312 | 17.78° C | 67% | 852.1 hPa | 0 mm | - | 0 W/m² | - |
| 1787885714 | 18.33° C | 64% | 852.3 hPa | 0 mm | - | 0 W/m² | - |
| 1787884887 | 17.78° C | 67% | 852.3 hPa | 0 mm | - | 0 W/m² | - |
| 1787884514 | 18.33° C | 65% | 851.9 hPa | 0 mm | - | 0 W/m² | - |
| 1787883914 | 18.89° C | 62% | 852 hPa | 0 mm | - | 0 W/m² | - |
| 1787883087 | 18.33° C | 63% | 851.7 hPa | 0 mm | - | 0 W/m² | - |
| 1787882714 | 18.33° C | 66% | 851.7 hPa | 0 mm | - | 0 W/m² | - |
| 1787882111 | 18.89° C | 62% | 851.9 hPa | 0 mm | - | 0 W/m² | - |
| 1787881286 | 19.44° C | 59% | 851.9 hPa | 0 mm | - | 0 W/m² | - |
| 1787880914 | 20° C | 57% | 852.1 hPa | 0 mm | - | 0 W/m² | - |
| 1787880314 | 20° C | 56% | 852 hPa | 0 mm | - | 0 W/m² | - |
| 1787879486 | 18.89° C | 62% | 851.9 hPa | 0 mm | - | 0 W/m² | - |
| 1787879113 | 18.89° C | 62% | 851.9 hPa | 0 mm | - | 0 W/m² | - |
| 1787878514 | 18.89° C | 61% | 852 hPa | 0 mm | - | 0 W/m² | - |
| 1787877686 | 18.33° C | 66% | 852.2 hPa | 0 mm | - | 0 W/m² | - |
* Rain latest hour (hover to see other rain measurements)
** Current wind speed in m/s (hover to see current wind gust speed)